Time;durP1;ratioP1;P1;durP2;ratioP2;P2;SDS_P1;SDS_P2;PMS_P1;PMS_P2;Temp;Humidity;BMP_temperature;BMP_pressure;BME280_temperature;BME280_humidity;BME280_pressure;Samples;Min_cycle;Max_cycle;Signal;HPM_P1;HPM_P2
2022/01/14 00:01:11;;;;;;;45.75;5.43;;;6.90;99.90;;;;;;5053944;28;20063;-68
2022/01/14 00:03:37;;;;;;;50.38;6.32;;;6.90;99.90;;;;;;5054549;28;20025;-68
2022/01/14 00:06:03;;;;;;;51.92;6.10;;;6.90;99.90;;;;;;5053916;28;20147;-68
2022/01/14 00:08:28;;;;;;;47.08;5.15;;;6.90;99.90;;;;;;5054077;28;20029;-68
2022/01/14 00:10:56;;;;;;;44.13;6.15;;;6.90;99.90;;;;;;5053808;28;20099;-68
2022/01/14 00:13:50;;;;;;;55.45;6.80;;;6.90;99.90;;;;;;5053733;28;20424;-68
2022/01/14 00:16:17;;;;;;;54.78;6.07;;;6.90;99.90;;;;;;5053807;28;20385;-68
2022/01/14 00:18:43;;;;;;;39.58;6.40;;;6.90;99.90;;;;;;5053668;28;20094;-68
2022/01/14 00:21:09;;;;;;;45.72;7.68;;;6.90;99.90;;;;;;5053657;28;20068;-68
2022/01/14 00:23:38;;;;;;;52.13;6.45;;;6.90;99.90;;;;;;5053677;28;20013;-68
2022/01/14 00:34:31;;;;;;;50.58;6.65;;;6.90;99.90;;;;;;5041370;28;19916;-68
2022/01/14 00:36:58;;;;;;;44.97;6.82;;;6.90;99.90;;;;;;5035529;28;20021;-68
2022/01/14 00:39:24;;;;;;;63.45;6.47;;;6.90;99.90;;;;;;5053218;28;20481;-68
2022/01/14 00:41:50;;;;;;;50.33;7.18;;;6.90;99.90;;;;;;5053340;28;20076;-68
2022/01/14 00:44:16;;;;;;;65.25;8.05;;;6.90;99.90;;;;;;5053315;28;20021;-68
2022/01/14 00:46:44;;;;;;;51.65;7.85;;;6.90;99.90;;;;;;5052823;28;20074;-68
2022/01/14 00:49:11;;;;;;;54.83;6.05;;;6.80;99.90;;;;;;5053252;28;20419;-69
2022/01/14 00:51:37;;;;;;;49.88;7.60;;;6.90;99.90;;;;;;5053209;28;20036;-69
2022/01/14 00:54:05;;;;;;;47.83;7.72;;;6.90;99.90;;;;;;5053285;28;20473;-69
2022/01/14 00:56:44;;;;;;;63.17;7.13;;;6.80;99.90;;;;;;5053491;28;20017;-69
2022/01/14 00:59:16;;;;;;;56.05;7.55;;;6.90;99.90;;;;;;5053530;28;20045;-69
2022/01/14 01:01:56;;;;;;;51.40;7.80;;;6.80;99.90;;;;;;5053422;28;20110;-69
2022/01/14 01:04:33;;;;;;;44.33;6.15;;;6.80;99.90;;;;;;5053208;28;20370;-69
2022/01/14 01:07:00;;;;;;;50.58;6.57;;;6.80;99.90;;;;;;5053458;28;20025;-69
2022/01/14 01:09:29;;;;;;;61.67;9.07;;;6.80;99.90;;;;;;5053306;28;20029;-69
2022/01/14 01:12:07;;;;;;;51.38;9.27;;;6.80;99.90;;;;;;5053075;28;20021;-69
2022/01/14 01:15:19;;;;;;;60.10;6.97;;;6.80;99.90;;;;;;5053332;28;20057;-69
2022/01/14 01:17:24;;;;;;;54.95;7.63;;;6.80;99.90;;;;;;5042068;28;20555;-69
2022/01/14 01:19:50;;;;;;;42.28;6.25;;;6.80;99.90;;;;;;5052922;28;20028;-69
2022/01/14 01:22:15;;;;;;;49.67;6.80;;;6.80;99.90;;;;;;5052976;28;20021;-69
2022/01/14 01:24:41;;;;;;;64.03;7.57;;;6.80;99.90;;;;;;5053209;28;20589;-69
2022/01/14 01:27:08;;;;;;;62.03;7.18;;;6.70;99.90;;;;;;5053207;28;20029;-69
2022/01/14 01:32:05;;;;;;;43.47;9.27;;;6.80;99.90;;;;;;5053196;28;20079;-69
2022/01/14 01:34:31;;;;;;;48.90;7.93;;;6.70;99.90;;;;;;5052754;28;20090;-69
2022/01/14 01:36:58;;;;;;;40.25;5.95;;;6.70;99.90;;;;;;5053113;28;20462;-69
2022/01/14 01:39:27;;;;;;;41.67;5.03;;;6.70;99.90;;;;;;5052655;28;20036;-69
2022/01/14 01:42:00;;;;;;;58.50;8.02;;;6.70;99.90;;;;;;5053854;28;20108;-69
2022/01/14 01:44:27;;;;;;;51.70;5.77;;;6.70;99.90;;;;;;5052814;28;20029;-69
2022/01/14 01:46:54;;;;;;;48.97;7.65;;;6.70;99.90;;;;;;5052728;28;20021;-69
2022/01/14 01:49:22;;;;;;;60.38;7.85;;;6.70;99.90;;;;;;5052935;28;20029;-69
2022/01/14 01:51:49;;;;;;;42.25;6.10;;;6.70;99.90;;;;;;5052706;28;20025;-69
2022/01/14 01:54:16;;;;;;;60.17;7.55;;;6.70;99.90;;;;;;5052587;28;20048;-69
2022/01/14 01:56:42;;;;;;;52.90;7.03;;;6.70;99.90;;;;;;5052660;28;20025;-69
2022/01/14 01:59:09;;;;;;;36.75;6.28;;;6.60;99.90;;;;;;5054208;28;20040;-69
2022/01/14 02:01:39;;;;;;;57.97;6.35;;;6.70;99.90;;;;;;5056255;28;20020;-69
2022/01/14 02:04:06;;;;;;;48.63;5.63;;;6.60;99.90;;;;;;5056552;28;20031;-69
2022/01/14 02:06:32;;;;;;;66.30;7.93;;;6.60;99.90;;;;;;5056207;28;20025;-69
2022/01/14 02:08:57;;;;;;;59.78;7.18;;;6.60;99.90;;;;;;5056152;28;20477;-69
2022/01/14 02:11:24;;;;;;;46.92;5.45;;;6.60;99.90;;;;;;5056030;28;20036;-69
2022/01/14 02:13:51;;;;;;;54.42;6.88;;;6.60;99.90;;;;;;5056023;28;20029;-69
2022/01/14 02:16:36;;;;;;;66.88;8.10;;;6.60;99.90;;;;;;5055975;28;20473;-69
2022/01/14 02:19:25;;;;;;;45.85;6.53;;;6.60;99.90;;;;;;5055957;28;20025;-69
2022/01/14 02:27:11;;;;;;;44.25;6.53;;;6.60;99.90;;;;;;5056148;28;20031;-69
2022/01/14 02:29:37;;;;;;;46.13;7.18;;;6.50;99.90;;;;;;5055725;28;20033;-69
2022/01/14 02:32:03;;;;;;;38.63;6.72;;;6.50;99.90;;;;;;5055678;28;20025;-69
2022/01/14 02:34:28;;;;;;;44.70;6.28;;;6.50;99.90;;;;;;5055885;28;20033;-69
2022/01/14 02:36:54;;;;;;;49.08;6.53;;;6.50;99.90;;;;;;5055630;28;20024;-69
2022/01/14 02:39:21;;;;;;;35.65;5.63;;;6.50;99.90;;;;;;5055464;28;20029;-69
2022/01/14 02:41:49;;;;;;;59.15;7.20;;;6.50;99.90;;;;;;5055509;28;20115;-69
2022/01/14 02:44:20;;;;;;;67.47;8.50;;;6.50;99.90;;;;;;5055538;28;20079;-69
2022/01/14 02:46:57;;;;;;;67.53;8.57;;;6.50;99.90;;;;;;5055771;28;20029;-69
2022/01/14 02:49:27;;;;;;;53.85;7.35;;;6.50;99.90;;;;;;5055397;28;20025;-69
2022/01/14 02:51:53;;;;;;;35.55;7.00;;;6.50;99.90;;;;;;5055436;28;20032;-69
2022/01/14 02:54:22;;;;;;;52.35;6.95;;;6.40;99.90;;;;;;5055344;28;20021;-69
2022/01/14 02:56:52;;;;;;;40.97;6.30;;;6.40;99.90;;;;;;5055382;28;20025;-69
2022/01/14 02:59:19;;;;;;;54.08;6.97;;;6.40;99.90;;;;;;5055230;28;20544;-69
2022/01/14 03:01:46;;;;;;;50.90;6.28;;;6.40;99.90;;;;;;5055189;28;20029;-69
2022/01/14 03:04:15;;;;;;;60.42;6.97;;;6.40;99.90;;;;;;5055097;28;20025;-69
2022/01/14 03:06:41;;;;;;;44.15;7.38;;;6.40;99.90;;;;;;5055354;28;20024;-69
2022/01/14 03:09:07;;;;;;;55.47;8.43;;;6.50;99.90;;;;;;5055057;28;20029;-69
2022/01/14 03:11:47;;;;;;;49.00;6.30;;;6.50;99.90;;;;;;5054602;28;20108;-69
2022/01/14 03:14:14;;;;;;;65.70;8.07;;;6.50;99.90;;;;;;5055775;28;20025;-69
2022/01/14 03:16:42;;;;;;;58.17;6.93;;;6.50;99.90;;;;;;5054825;28;20021;-69
2022/01/14 03:19:16;;;;;;;56.95;6.55;;;6.50;99.90;;;;;;5054838;28;20021;-69
2022/01/14 03:21:42;;;;;;;74.38;10.90;;;6.50;99.90;;;;;;5055284;28;20103;-69
2022/01/14 03:26:49;;;;;;;62.65;8.30;;;6.50;99.90;;;;;;5055009;28;20083;-69
2022/01/14 03:29:16;;;;;;;51.00;7.65;;;6.50;99.90;;;;;;5054615;28;20025;-69
2022/01/14 03:31:44;;;;;;;63.45;6.95;;;6.50;99.90;;;;;;5054465;28;20033;-69
2022/01/14 03:34:09;;;;;;;58.58;9.05;;;6.60;99.90;;;;;;5054465;28;20032;-69
2022/01/14 03:36:35;;;;;;;68.90;6.60;;;6.50;99.90;;;;;;5054436;28;20025;-69
2022/01/14 03:39:01;;;;;;;45.72;6.18;;;6.50;99.90;;;;;;5054377;28;20082;-69
2022/01/14 03:41:26;;;;;;;55.25;8.35;;;6.50;99.90;;;;;;5054249;28;20029;-69
2022/01/14 03:43:52;;;;;;;53.03;6.68;;;6.50;99.90;;;;;;5054311;28;20092;-69
2022/01/14 03:46:17;;;;;;;66.97;7.10;;;6.50;99.90;;;;;;5054282;28;20025;-69
2022/01/14 03:48:43;;;;;;;66.22;8.23;;;6.50;99.90;;;;;;5054896;28;20060;-69
2022/01/14 03:51:09;;;;;;;42.95;7.05;;;6.50;99.90;;;;;;5054154;28;20025;-69
2022/01/14 03:53:34;;;;;;;49.75;6.22;;;6.50;99.90;;;;;;5054129;28;20025;-69
2022/01/14 03:56:00;;;;;;;59.72;7.55;;;6.50;99.90;;;;;;5054114;28;20025;-69
2022/01/14 03:58:26;;;;;;;64.68;6.53;;;6.50;99.90;;;;;;5054500;28;20071;-69
2022/01/14 04:00:51;;;;;;;47.33;6.78;;;6.60;99.90;;;;;;5054509;28;20033;-69
2022/01/14 04:03:17;;;;;;;67.32;6.18;;;6.60;99.90;;;;;;5053997;28;20021;-69
2022/01/14 04:05:42;;;;;;;55.92;6.63;;;6.50;99.90;;;;;;5053927;28;20469;-69
2022/01/14 04:08:08;;;;;;;60.08;7.68;;;6.60;99.90;;;;;;5054043;28;20064;-69
2022/01/14 04:10:34;;;;;;;68.50;9.63;;;6.60;99.90;;;;;;5054040;28;20021;-69
2022/01/14 04:13:11;;;;;;;60.15;7.28;;;6.60;99.90;;;;;;5053793;28;20039;-69
2022/01/14 04:15:36;;;;;;;51.53;7.35;;;6.60;99.90;;;;;;5054195;28;20434;-69
2022/01/14 04:18:06;;;;;;;46.80;6.15;;;6.60;99.90;;;;;;5053750;28;20064;-69
2022/01/14 04:20:32;;;;;;;55.22;7.45;;;6.60;99.90;;;;;;5053607;28;20496;-69
2022/01/14 04:22:58;;;;;;;66.82;7.15;;;6.60;99.90;;;;;;5053493;28;20064;-69
2022/01/14 04:25:23;;;;;;;65.20;7.53;;;6.60;99.90;;;;;;5053728;28;20049;-69
2022/01/14 04:27:50;;;;;;;53.97;7.07;;;6.60;99.90;;;;;;5054145;28;20064;-69
2022/01/14 04:30:17;;;;;;;67.20;7.90;;;6.70;99.90;;;;;;5053438;28;20504;-69
2022/01/14 04:32:43;;;;;;;59.80;7.65;;;6.70;99.90;;;;;;5053501;28;20029;-69
2022/01/14 04:35:09;;;;;;;69.88;9.88;;;6.70;99.90;;;;;;5053418;28;20032;-69
2022/01/14 04:37:35;;;;;;;61.85;8.27;;;6.60;99.90;;;;;;5053726;28;20029;-69
2022/01/14 04:40:02;;;;;;;65.20;6.95;;;6.60;99.90;;;;;;5053211;28;20503;-69
2022/01/14 04:42:28;;;;;;;62.72;7.65;;;6.60;99.90;;;;;;5053391;28;20040;-69
2022/01/14 04:44:55;;;;;;;78.85;9.10;;;6.60;99.90;;;;;;5053636;28;20099;-69
2022/01/14 04:47:44;;;;;;;67.38;7.65;;;6.60;99.90;;;;;;5053891;28;20025;-69
2022/01/14 04:50:12;;;;;;;55.42;7.03;;;6.60;99.90;;;;;;5053318;28;20021;-69
2022/01/14 04:52:39;;;;;;;52.85;8.80;;;6.60;99.90;;;;;;5053375;28;20043;-69
2022/01/14 04:55:09;;;;;;;79.05;7.63;;;6.60;99.90;;;;;;5053481;28;20032;-69
2022/01/14 04:57:35;;;;;;;54.47;8.63;;;6.60;99.90;;;;;;5053353;28;20021;-69
2022/01/14 05:00:03;;;;;;;47.92;6.03;;;6.70;99.90;;;;;;5053146;28;20017;-69
2022/01/14 05:02:28;;;;;;;49.05;6.70;;;6.70;99.90;;;;;;5035326;28;20397;-68
2022/01/14 05:04:57;;;;;;;63.90;7.75;;;6.70;99.90;;;;;;5053135;28;20025;-68
2022/01/14 05:07:25;;;;;;;64.78;9.13;;;6.70;99.90;;;;;;5053389;28;20032;-68
2022/01/14 05:12:30;;;;;;;67.18;8.25;;;6.70;99.90;;;;;;5053127;28;20389;-68
2022/01/14 05:14:56;;;;;;;67.18;8.95;;;6.70;99.90;;;;;;5052979;28;20029;-68
2022/01/14 05:17:21;;;;;;;59.42;7.35;;;6.70;99.90;;;;;;5053033;28;20031;-68
2022/01/14 05:19:47;;;;;;;74.30;9.23;;;6.70;99.90;;;;;;5052962;28;20025;-68
2022/01/14 05:22:13;;;;;;;55.17;8.02;;;6.70;99.90;;;;;;5052990;28;20025;-68
2022/01/14 05:24:39;;;;;;;64.43;6.53;;;6.70;99.90;;;;;;5035127;28;20500;-68
2022/01/14 05:27:04;;;;;;;68.32;7.93;;;6.70;99.90;;;;;;5052922;28;20397;-68
2022/01/14 05:29:31;;;;;;;67.70;7.78;;;6.80;99.90;;;;;;5053048;28;20134;-68
2022/01/14 05:32:03;;;;;;;50.50;6.82;;;6.80;99.90;;;;;;5052891;28;20061;-68
2022/01/14 05:34:30;;;;;;;73.65;7.32;;;6.80;99.90;;;;;;5055369;28;20021;-68
2022/01/14 05:36:56;;;;;;;76.65;8.15;;;6.80;99.90;;;;;;5056760;28;20099;-68
2022/01/14 05:39:23;;;;;;;67.57;10.18;;;6.80;99.90;;;;;;5056552;28;20108;-68
2022/01/14 05:41:49;;;;;;;60.63;9.07;;;6.80;99.90;;;;;;5056697;28;20028;-68
2022/01/14 05:44:15;;;;;;;64.03;8.93;;;6.80;99.90;;;;;;5056617;28;20017;-68
2022/01/14 05:46:40;;;;;;;66.35;8.02;;;6.80;99.90;;;;;;5056624;28;20082;-68
2022/01/14 05:49:06;;;;;;;62.60;7.78;;;6.80;99.90;;;;;;5056518;28;20029;-68
2022/01/14 05:51:32;;;;;;;54.47;7.88;;;6.80;99.90;;;;;;5056436;28;20075;-68
2022/01/14 05:53:58;;;;;;;69.63;7.43;;;6.80;99.90;;;;;;5056369;28;20048;-68
2022/01/14 05:56:23;;;;;;;80.90;10.27;;;6.80;99.90;;;;;;5056680;28;20481;-68
2022/01/14 05:58:49;;;;;;;65.40;8.00;;;6.80;99.90;;;;;;5056379;28;20029;-68
2022/01/14 06:01:14;;;;;;;77.45;8.38;;;6.80;99.90;;;;;;5056391;28;20029;-68
2022/01/14 06:03:40;;;;;;;63.95;8.07;;;6.80;99.90;;;;;;5056280;28;20067;-68
2022/01/14 06:06:06;;;;;;;79.35;10.77;;;6.80;99.90;;;;;;5056216;28;20477;-68
2022/01/14 06:08:32;;;;;;;62.80;8.00;;;6.80;99.90;;;;;;5056161;28;20029;-68
2022/01/14 06:10:57;;;;;;;63.10;8.38;;;6.80;99.90;;;;;;5056081;28;20438;-68
2022/01/14 06:13:23;;;;;;;65.47;8.73;;;6.80;99.90;;;;;;5056597;28;20413;-68
2022/01/14 06:15:48;;;;;;;52.28;8.20;;;6.80;99.90;;;;;;5055980;28;20108;-68
2022/01/14 06:18:14;;;;;;;64.90;8.00;;;6.80;99.90;;;;;;5055973;28;20057;-68
2022/01/14 06:20:40;;;;;;;77.45;9.65;;;6.80;99.90;;;;;;5055877;28;20495;-68
2022/01/14 06:23:05;;;;;;;68.88;7.82;;;6.90;99.90;;;;;;5055929;28;20526;-68
2022/01/14 06:25:31;;;;;;;51.88;8.25;;;6.90;99.90;;;;;;5055863;28;20385;-68
2022/01/14 06:27:56;;;;;;;77.95;10.65;;;6.90;99.90;;;;;;5055809;28;20021;-68
2022/01/14 06:30:22;;;;;;;97.05;10.95;;;6.90;99.90;;;;;;5056294;28;20032;-68
2022/01/14 06:32:51;;;;;;;68.13;8.07;;;6.90;99.90;;;;;;5055741;28;20100;-68
2022/01/14 06:35:17;;;;;;;76.03;8.82;;;6.90;99.90;;;;;;5055592;28;20021;-68
2022/01/14 06:37:43;;;;;;;74.05;8.55;;;6.90;99.90;;;;;;5055656;28;20017;-68
2022/01/14 06:40:10;;;;;;;101.05;11.02;;;6.90;99.90;;;;;;5055512;28;20029;-68
2022/01/14 06:42:36;;;;;;;67.72;8.77;;;7.00;99.90;;;;;;5055574;28;20388;-68
2022/01/14 06:45:03;;;;;;;70.60;11.43;;;7.00;99.90;;;;;;5054272;28;20025;-68
2022/01/14 06:47:29;;;;;;;78.90;9.70;;;7.00;99.90;;;;;;5055668;28;20063;-68
2022/01/14 06:49:55;;;;;;;91.32;9.20;;;7.00;99.90;;;;;;5055336;28;20116;-68
2022/01/14 06:52:21;;;;;;;85.47;9.05;;;7.00;99.90;;;;;;5055739;28;20028;-68
2022/01/14 06:54:47;;;;;;;84.78;10.07;;;7.00;99.90;;;;;;5055283;28;20040;-68
2022/01/14 06:57:13;;;;;;;70.45;9.68;;;7.00;99.90;;;;;;5055553;28;20025;-68
2022/01/14 06:59:39;;;;;;;58.53;8.15;;;7.00;99.90;;;;;;5055203;28;20024;-68
2022/01/14 07:02:04;;;;;;;79.53;9.02;;;7.00;99.90;;;;;;5055390;28;20075;-68
2022/01/14 07:04:30;;;;;;;64.30;8.60;;;7.10;99.90;;;;;;5037249;28;20021;-68
2022/01/14 07:06:56;;;;;;;63.67;9.13;;;7.10;99.90;;;;;;5055272;28;20032;-68
2022/01/14 07:09:21;;;;;;;92.10;11.98;;;7.10;99.90;;;;;;5054946;28;20087;-68
2022/01/14 07:11:52;;;;;;;75.93;7.95;;;7.10;99.90;;;;;;5055001;28;20025;-68
2022/01/14 07:14:19;;;;;;;97.63;10.95;;;7.10;99.90;;;;;;5054927;28;20465;-68
2022/01/14 07:16:45;;;;;;;80.57;10.32;;;7.10;99.90;;;;;;5055169;28;20048;-68
2022/01/14 07:19:12;;;;;;;81.25;9.07;;;7.10;99.90;;;;;;5054902;28;20071;-68
2022/01/14 07:21:39;;;;;;;90.00;11.30;;;7.20;99.90;;;;;;5054736;28;20021;-68
2022/01/14 07:24:05;;;;;;;69.95;9.50;;;7.20;99.90;;;;;;5055071;28;20039;-68
2022/01/14 07:26:31;;;;;;;69.20;10.68;;;7.20;99.90;;;;;;5054737;28;20047;-68
2022/01/14 07:28:57;;;;;;;82.47;9.85;;;7.30;99.90;;;;;;5054913;28;20104;-68
2022/01/14 07:31:22;;;;;;;85.30;11.30;;;7.30;99.90;;;;;;5054812;28;20025;-68
2022/01/14 07:33:48;;;;;;;89.65;11.10;;;7.30;99.90;;;;;;5054535;28;20032;-68
2022/01/14 07:36:13;;;;;;;93.38;8.65;;;7.30;99.90;;;;;;5054525;28;20114;-68
2022/01/14 07:38:39;;;;;;;79.78;10.45;;;7.30;99.90;;;;;;5054462;28;20025;-68
2022/01/14 07:41:05;;;;;;;92.22;12.50;;;7.30;99.90;;;;;;5103586;22;20409;-68
2022/01/14 07:43:30;;;;;;;66.07;9.13;;;7.30;99.90;;;;;;5034513;28;20086;-68
2022/01/14 07:45:56;;;;;;;81.30;10.85;;;7.30;99.90;;;;;;5034449;28;20064;-68
2022/01/14 07:48:22;;;;;;;77.15;11.38;;;7.30;99.90;;;;;;5034733;28;20041;-68
2022/01/14 07:50:48;;;;;;;80.22;8.98;;;7.30;99.90;;;;;;5034560;28;20025;-68
2022/01/14 07:53:14;;;;;;;60.13;8.43;;;7.40;99.90;;;;;;5034317;28;20087;-68
2022/01/14 07:55:40;;;;;;;78.10;9.30;;;7.40;99.90;;;;;;5034077;28;20034;-68
2022/01/14 07:58:06;;;;;;;83.95;10.35;;;7.40;99.90;;;;;;5033703;28;20025;-68
2022/01/14 08:00:34;;;;;;;76.97;9.15;;;7.40;99.90;;;;;;5034123;28;20031;-68
2022/01/14 08:03:00;;;;;;;79.90;10.23;;;7.30;99.90;;;;;;5034362;28;20026;-68
2022/01/14 08:05:25;;;;;;;94.43;9.73;;;7.30;99.90;;;;;;5034055;28;20029;-68
2022/01/14 08:07:53;;;;;;;93.10;9.52;;;7.30;99.90;;;;;;5034037;28;20104;-68
2022/01/14 08:10:18;;;;;;;87.45;10.32;;;7.30;99.90;;;;;;5034029;28;20021;-68
2022/01/14 08:12:46;;;;;;;81.63;9.95;;;7.30;99.90;;;;;;5034272;28;20393;-68
2022/01/14 08:15:12;;;;;;;72.25;8.55;;;7.30;99.90;;;;;;5033851;28;20032;-68
2022/01/14 08:17:38;;;;;;;94.85;11.13;;;7.30;99.90;;;;;;5033919;28;20370;-68
2022/01/14 08:20:05;;;;;;;72.30;9.10;;;7.30;99.90;;;;;;5033768;28;20507;-68
2022/01/14 08:22:31;;;;;;;97.60;10.98;;;7.30;99.90;;;;;;5033728;28;20033;-68
2022/01/14 08:24:58;;;;;;;68.07;8.40;;;7.30;99.90;;;;;;5033760;28;20370;-68
2022/01/14 08:27:26;;;;;;;73.28;8.25;;;7.30;99.90;;;;;;5033876;28;20389;-68
2022/01/14 08:29:52;;;;;;;71.20;8.15;;;7.30;99.90;;;;;;5033727;28;20045;-68
2022/01/14 08:32:18;;;;;;;63.60;9.18;;;7.30;99.90;;;;;;5033578;28;20029;-68
2022/01/14 08:34:43;;;;;;;48.20;8.70;;;7.40;99.90;;;;;;5033850;28;20029;-68
2022/01/14 08:37:09;;;;;;;61.47;7.57;;;7.40;99.90;;;;;;5033573;28;20029;-68
2022/01/14 08:39:34;;;;;;;60.25;8.00;;;7.40;99.90;;;;;;5033538;28;20025;-69
2022/01/14 08:42:02;;;;;;;55.22;6.47;;;7.50;99.90;;;;;;5033402;28;20034;-69
2022/01/14 08:44:28;;;;;;;52.00;6.40;;;7.50;99.90;;;;;;5033494;28;20503;-69
2022/01/14 08:46:55;;;;;;;53.10;6.05;;;7.60;99.90;;;;;;5033472;28;20038;-68
2022/01/14 08:49:21;;;;;;;48.83;7.13;;;7.60;99.90;;;;;;5033701;28;20029;-68
2022/01/14 08:51:47;;;;;;;56.35;7.47;;;7.60;99.90;;;;;;5033332;28;20026;-68
2022/01/14 08:54:13;;;;;;;60.47;7.38;;;7.60;99.90;;;;;;5033582;28;20064;-68
2022/01/14 08:56:38;;;;;;;44.78;6.82;;;7.70;99.90;;;;;;5033317;28;20080;-68
2022/01/14 08:59:05;;;;;;;53.90;6.10;;;7.60;99.90;;;;;;5033891;28;20026;-68
2022/01/14 09:01:31;;;;;;;50.72;5.90;;;7.60;99.90;;;;;;5015601;28;20029;-68
2022/01/14 09:03:57;;;;;;;50.65;6.63;;;7.70;99.90;;;;;;5033242;28;20017;-68
2022/01/14 09:06:22;;;;;;;51.95;6.70;;;7.70;99.90;;;;;;5033229;28;20033;-68
2022/01/14 09:08:48;;;;;;;52.45;6.65;;;7.70;99.90;;;;;;5034448;28;20018;-68
2022/01/14 09:11:14;;;;;;;48.25;6.32;;;7.70;99.90;;;;;;5037671;28;20032;-68
2022/01/14 09:13:40;;;;;;;35.80;5.47;;;7.60;99.90;;;;;;5037617;28;20033;-68
2022/01/14 09:16:05;;;;;;;49.22;6.32;;;7.60;99.90;;;;;;5037722;28;20033;-68
2022/01/14 09:18:31;;;;;;;37.88;5.35;;;7.70;99.90;;;;;;5037209;28;20025;-68
2022/01/14 09:20:58;;;;;;;65.35;11.43;;;7.70;99.90;;;;;;5037037;28;20071;-68
2022/01/14 09:23:25;;;;;;;50.10;5.70;;;7.70;99.90;;;;;;5037383;28;20082;-69
2022/01/14 09:25:54;;;;;;;51.47;6.90;;;7.70;99.90;;;;;;5037098;28;20113;-69
2022/01/14 09:28:20;;;;;;;54.28;5.93;;;7.70;99.90;;;;;;5037045;28;20021;-69
2022/01/14 09:30:46;;;;;;;34.58;5.57;;;7.70;99.90;;;;;;5037103;28;20074;-69
2022/01/14 09:33:12;;;;;;;60.80;5.25;;;7.70;99.90;;;;;;5037053;28;20061;-69
2022/01/14 09:35:40;;;;;;;45.17;5.82;;;7.70;99.90;;;;;;5036851;28;20033;-69
2022/01/14 09:38:06;;;;;;;33.10;4.80;;;7.80;99.90;;;;;;5036896;28;20013;-69
2022/01/14 09:40:32;;;;;;;42.83;4.47;;;7.80;99.90;;;;;;5036683;28;20029;-69
2022/01/14 09:43:01;;;;;;;37.83;4.70;;;7.80;99.90;;;;;;5036799;28;20508;-69
2022/01/14 09:45:28;;;;;;;34.92;6.00;;;7.80;99.90;;;;;;5037009;28;20021;-69
2022/01/14 09:47:55;;;;;;;36.95;4.65;;;7.80;99.90;;;;;;5036692;28;20087;-69
2022/01/14 09:50:20;;;;;;;41.28;4.80;;;7.90;99.90;;;;;;5036575;28;20535;-69
2022/01/14 09:52:49;;;;;;;39.63;4.25;;;7.80;99.90;;;;;;5036650;28;20029;-69
2022/01/14 09:55:15;;;;;;;45.03;5.20;;;7.90;99.90;;;;;;5037028;28;20026;-69
2022/01/14 09:57:41;;;;;;;39.00;4.32;;;7.90;99.90;;;;;;5036817;28;20018;-69
2022/01/14 10:00:08;;;;;;;38.78;5.30;;;7.80;99.90;;;;;;5036421;28;20095;-69
2022/01/14 10:02:40;;;;;;;40.47;4.40;;;7.80;99.90;;;;;;5036385;28;20044;-69
2022/01/14 10:05:08;;;;;;;35.15;3.75;;;7.80;99.90;;;;;;5036707;28;20053;-69
2022/01/14 10:07:34;;;;;;;24.00;3.10;;;7.80;99.90;;;;;;5036402;28;20033;-70
2022/01/14 10:10:02;;;;;;;24.45;3.40;;;7.80;99.90;;;;;;5036227;28;20049;-69
2022/01/14 10:12:34;;;;;;;27.08;3.78;;;7.80;99.90;;;;;;5036571;28;20051;-68
2022/01/14 10:15:09;;;;;;;28.73;4.10;;;7.80;99.90;;;;;;5036156;28;20075;-68
2022/01/14 10:17:43;;;;;;;44.58;3.95;;;7.70;99.90;;;;;;5036302;28;20021;-68
2022/01/14 10:20:14;;;;;;;23.38;3.28;;;7.80;99.90;;;;;;5036066;28;20025;-69
2022/01/14 10:22:45;;;;;;;35.45;4.22;;;7.80;99.90;;;;;;5036413;28;20071;-68
2022/01/14 10:25:17;;;;;;;25.58;4.53;;;7.80;99.90;;;;;;5036001;28;20405;-69
2022/01/14 10:27:48;;;;;;;50.83;4.78;;;7.80;99.90;;;;;;5036077;28;20119;-70
2022/01/14 10:30:14;;;;;;;25.50;3.88;;;7.90;99.90;;;;;;5036142;28;20021;-70
2022/01/14 10:32:42;;;;;;;36.63;4.55;;;7.90;99.90;;;;;;5036113;28;20051;-70
2022/01/14 10:35:10;;;;;;;26.98;3.05;;;7.90;99.90;;;;;;5035909;28;20036;-70
2022/01/14 10:37:36;;;;;;;40.75;4.25;;;7.90;99.90;;;;;;5035770;28;20022;-70
2022/01/14 10:40:13;;;;;;;36.97;4.10;;;7.90;99.90;;;;;;5035997;28;20120;-70
2022/01/14 10:42:40;;;;;;;31.40;3.45;;;7.90;99.90;;;;;;5035739;28;20112;-70
2022/01/14 10:45:22;;;;;;;29.23;3.53;;;8.00;99.90;;;;;;5035905;28;20109;-70
2022/01/14 10:47:53;;;;;;;36.47;4.50;;;8.00;99.90;;;;;;5035847;28;20100;-70
2022/01/14 10:50:35;;;;;;;30.08;4.60;;;8.00;99.90;;;;;;5035512;28;20072;-69
2022/01/14 10:53:06;;;;;;;20.80;3.42;;;8.00;99.90;;;;;;5036083;28;20025;-70
2022/01/14 10:55:35;;;;;;;32.70;4.80;;;8.00;99.90;;;;;;5035680;28;20057;-70
2022/01/14 10:58:07;;;;;;;14.85;2.70;;;8.00;99.90;;;;;;5035405;28;20381;-68
2022/01/14 11:00:44;;;;;;;27.88;3.42;;;8.00;99.90;;;;;;5035547;28;20435;-69
2022/01/14 11:03:10;;;;;;;18.90;2.47;;;8.00;99.90;;;;;;5035612;28;20374;-70
2022/01/14 11:05:36;;;;;;;18.50;2.65;;;8.00;99.90;;;;;;5035535;28;20028;-70
2022/01/14 11:08:02;;;;;;;17.02;2.75;;;8.00;99.90;;;;;;5035523;28;20026;-70
2022/01/14 11:10:34;;;;;;;18.15;2.67;;;7.90;99.90;;;;;;5035250;28;20029;-70
2022/01/14 11:13:01;;;;;;;22.75;3.45;;;7.80;99.90;;;;;;5035478;28;20029;-70
2022/01/14 11:15:29;;;;;;;24.70;4.15;;;7.80;99.90;;;;;;5035499;28;20048;-70
2022/01/14 11:17:58;;;;;;;13.65;2.67;;;7.90;99.90;;;;;;5035296;28;20097;-68
2022/01/14 11:20:36;;;;;;;20.08;4.13;;;8.00;99.90;;;;;;5035220;28;20053;-69
2022/01/14 11:23:14;;;;;;;17.67;2.40;;;7.90;99.90;;;;;;5036352;28;20100;-68
2022/01/14 11:25:46;;;;;;;31.42;2.88;;;7.90;99.90;;;;;;5035482;28;20048;-68
2022/01/14 11:28:17;;;;;;;28.15;3.90;;;7.80;99.90;;;;;;5035257;28;20030;-68
2022/01/14 11:30:44;;;;;;;23.80;3.53;;;7.90;99.90;;;;;;5034464;28;20060;-69
2022/01/14 11:33:09;;;;;;;35.90;4.00;;;7.90;99.90;;;;;;5034345;28;20025;-69
2022/01/14 11:35:37;;;;;;;32.03;3.05;;;8.00;99.90;;;;;;5034622;28;20541;-69
2022/01/14 11:38:37;;;;;;;27.80;3.90;;;8.00;99.90;;;;;;5034889;28;20086;-70
2022/01/14 11:41:03;;;;;;;23.50;2.85;;;8.00;99.90;;;;;;5034778;28;20112;-67
2022/01/14 11:43:39;;;;;;;23.42;2.95;;;8.10;99.90;;;;;;5034563;28;20056;-68
2022/01/14 11:46:05;;;;;;;22.25;3.85;;;8.20;99.90;;;;;;5034520;28;20100;-68
2022/01/14 11:48:43;;;;;;;31.17;4.28;;;8.10;99.90;;;;;;5034649;28;20018;-68
2022/01/14 11:51:11;;;;;;;29.63;4.00;;;8.10;99.90;;;;;;5034599;28;20037;-68
2022/01/14 11:53:48;;;;;;;27.20;4.47;;;8.10;99.90;;;;;;5034600;28;20026;-68
2022/01/14 11:56:32;;;;;;;33.97;4.80;;;8.20;99.90;;;;;;5034382;28;20025;-68
2022/01/14 11:59:17;;;;;;;;;;;8.20;99.90;;;;;;5035216;28;20032;-68
2022/01/14 12:01:43;;;;;;;43.08;5.30;;;8.20;99.90;;;;;;5034669;28;19905;-68
2022/01/14 12:04:08;;;;;;;27.98;3.67;;;8.10;99.90;;;;;;5034105;28;20489;-68
2022/01/14 12:06:54;;;;;;;29.45;4.03;;;8.20;99.90;;;;;;5034643;28;20119;-68
2022/01/14 12:09:22;;;;;;;39.55;4.70;;;8.20;99.90;;;;;;5034315;28;20503;-68
2022/01/14 12:12:23;;;;;;;32.47;4.35;;;8.30;99.90;;;;;;5033941;28;20033;-68
2022/01/14 12:14:56;;;;;;;24.40;3.60;;;8.20;99.90;;;;;;5029144;28;20044;-69
2022/01/14 12:17:33;;;;;;;31.63;4.60;;;8.30;99.90;;;;;;5034042;28;20021;-69
2022/01/14 12:20:18;;;;;;;24.08;3.88;;;8.30;99.90;;;;;;5033828;28;20083;-69
2022/01/14 12:23:06;;;;;;;33.92;4.57;;;8.40;99.90;;;;;;5033977;28;20481;-69
2022/01/14 12:25:43;;;;;;;30.88;5.80;;;8.50;99.90;;;;;;5034125;28;20060;-68
2022/01/14 12:28:21;;;;;;;37.08;4.85;;;8.60;99.90;;;;;;5033802;28;20025;-68
2022/01/14 12:30:57;;;;;;;36.17;4.97;;;8.60;99.90;;;;;;5033657;28;20026;-68
2022/01/14 12:34:06;;;;;;;31.77;6.68;;;8.50;99.90;;;;;;5033936;28;20064;-68
2022/01/14 12:36:35;;;;;;;34.85;5.40;;;8.30;99.90;;;;;;4996445;28;20381;-68
2022/01/14 12:39:02;;;;;;;42.88;6.38;;;8.20;99.90;;;;;;5033562;28;20025;-68
2022/01/14 12:41:28;;;;;;;52.63;6.95;;;8.20;99.90;;;;;;5033326;28;20026;-68
2022/01/14 12:43:57;;;;;;;52.35;5.68;;;8.00;99.90;;;;;;5033469;28;20029;-68
2022/01/14 12:49:14;;;;;;;55.50;8.10;;;8.10;99.90;;;;;;5033534;28;20105;-68
2022/01/14 12:51:40;;;;;;;62.67;6.85;;;8.20;99.90;;;;;;5033542;28;20060;-68
2022/01/14 12:54:08;;;;;;;48.78;6.50;;;8.10;99.90;;;;;;5033271;28;20100;-69
2022/01/14 12:56:36;;;;;;;44.70;5.88;;;8.30;99.90;;;;;;5033337;28;20040;-69
2022/01/14 12:59:05;;;;;;;41.03;6.88;;;8.40;99.90;;;;;;5015701;28;20056;-69
2022/01/14 13:01:51;;;;;;;41.88;5.68;;;8.70;99.90;;;;;;5033238;28;20075;-68
2022/01/14 13:04:18;;;;;;;47.35;6.88;;;8.80;99.90;;;;;;5033320;28;20100;-68
2022/01/14 13:06:45;;;;;;;45.53;7.25;;;8.70;99.90;;;;;;5033268;28;20034;-68
2022/01/14 13:09:12;;;;;;;48.70;8.10;;;8.50;99.90;;;;;;5033248;28;20070;-68
2022/01/14 13:11:46;;;;;;;40.30;5.07;;;8.60;99.90;;;;;;5033121;28;20029;-68
2022/01/14 13:14:17;;;;;;;53.15;7.30;;;8.60;99.90;;;;;;5033364;28;20022;-68
2022/01/14 13:16:45;;;;;;;56.83;7.55;;;8.70;99.90;;;;;;5033783;28;20395;-68